PWSweather.com
Personal Weather Stations
Station Observations
KMACAMBR
Central Square, Cambridge, MA 02139

Central SquareCambridge, MA 02139

Lat: 42.36379, Lon: -71.107902

Elevation: 6

Station Type: Davis Vantage Pro2

https://weather-cambridge.keneli.org

Latest ConditionsUpdated 6:10:00 PM EDT Friday, Oct 18, 2019
Currently Today's Max Today's Min Today's Average
Temperature 54.4°F12.4°C 57.9°F14.4°C 48.4°F9.1°C 52.6°F11.4°C
Dew Point 40.4°F4.7°C 43.5°F6.4°C 40.0°F4.4°C 41.6°F5.3°C
Winds 4.0 mph NW6.4 kmh NW 9.0 mph -14.5 kmh - - 4.0 mph 6.4 kmh
Wind Gusts 13.0 mph20.9 kmh 21.0 mph33.8 kmh - -
Humidity 59% 77% 53% 67%
Pressure 29.77 in1008.1 mb 29.77 in1008.1 mb 29.37 in994.6 mb -
Hour Temp Dew Point Humidity Winds Wind Gusts Pressure Precip Precip Rate Daily Precip Total
06:10 PM 54.4°F12.4°C 40.4°F4.7°C 59% 4.0 mph NW6.4 kmh NW 13.0 mph20.9 kmh 29.77 in1008.1 mb 0.00 in0.0 mm 0.00 in0.0 mm 0.00 in0.0 mm
06:05 PM 54.6°F12.6°C 40.1°F4.5°C 58% 4.0 mph WNW6.4 kmh WNW 10.0 mph16.1 kmh 29.77 in1008.1 mb 0.00 in0.0 mm 0.00 in0.0 mm 0.00 in0.0 mm
06:00 PM 54.8°F12.7°C 40.3°F4.6°C 58% 5.0 mph WNW8.0 kmh WNW 9.0 mph14.5 kmh 29.77 in1008.1 mb 0.00 in0.0 mm 0.00 in0.0 mm 0.00 in0.0 mm
05:55 PM 55.0°F12.8°C 40.0°F4.4°C 57% 5.0 mph WNW8.0 kmh WNW 11.0 mph17.7 kmh 29.77 in1008.1 mb 0.00 in0.0 mm 0.00 in0.0 mm 0.00 in0.0 mm
05:50 PM 55.3°F12.9°C 40.3°F4.6°C 57% 4.0 mph WNW6.4 kmh WNW 12.0 mph19.3 kmh 29.77 in1008.1 mb 0.00 in0.0 mm 0.00 in0.0 mm 0.00 in0.0 mm
05:45 PM 55.5°F13.1°C 40.1°F4.5°C 56% 5.0 mph NW8.0 kmh NW 14.0 mph22.5 kmh 29.76 in1007.8 mb 0.00 in0.0 mm 0.00 in0.0 mm 0.00 in0.0 mm
05:40 PM 55.7°F13.2°C 40.2°F4.6°C 56% 4.0 mph NW6.4 kmh NW 11.0 mph17.7 kmh 29.76 in1007.8 mb 0.00 in0.0 mm 0.00 in0.0 mm 0.00 in0.0 mm
05:35 PM 55.9°F13.3°C 40.4°F4.7°C 56% 5.0 mph WNW8.0 kmh WNW 11.0 mph17.7 kmh 29.76 in1007.8 mb 0.00 in0.0 mm 0.00 in0.0 mm 0.00 in0.0 mm
05:30 PM 56.1°F13.4°C 40.2°F4.6°C 55% 5.0 mph WNW8.0 kmh WNW 12.0 mph19.3 kmh 29.76 in1007.8 mb 0.00 in0.0 mm 0.00 in0.0 mm 0.00 in0.0 mm
05:25 PM 56.3°F13.5°C 40.3°F4.6°C 55% 4.0 mph WNW6.4 kmh WNW 11.0 mph17.7 kmh 29.76 in1007.8 mb 0.00 in0.0 mm 0.00 in0.0 mm 0.00 in0.0 mm
05:20 PM 56.4°F13.6°C 40.4°F4.7°C 55% 6.0 mph WNW9.7 kmh WNW 15.0 mph24.1 kmh 29.76 in1007.8 mb 0.00 in0.0 mm 0.00 in0.0 mm 0.00 in0.0 mm
05:15 PM 56.5°F13.6°C 41.0°F5.0°C 56% 3.0 mph WNW4.8 kmh WNW 10.0 mph16.1 kmh 29.75 in1007.5 mb 0.00 in0.0 mm 0.00 in0.0 mm 0.00 in0.0 mm
05:10 PM 56.6°F13.7°C 40.6°F4.8°C 55% 3.0 mph WSW4.8 kmh WSW 6.0 mph9.7 kmh 29.75 in1007.5 mb 0.00 in0.0 mm 0.00 in0.0 mm 0.00 in0.0 mm
05:05 PM 56.6°F13.7°C 40.6°F4.8°C 55% 6.0 mph WNW9.7 kmh WNW 15.0 mph24.1 kmh 29.75 in1007.5 mb 0.00 in0.0 mm 0.00 in0.0 mm 0.00 in0.0 mm
05:00 PM 56.7°F13.7°C 40.7°F4.8°C 55% 6.0 mph WNW9.7 kmh WNW 17.0 mph27.4 kmh 29.74 in1007.1 mb 0.00 in0.0 mm 0.00 in0.0 mm 0.00 in0.0 mm
04:55 PM 56.8°F13.8°C 40.8°F4.9°C 55% 6.0 mph W9.7 kmh W 14.0 mph22.5 kmh 29.74 in1007.1 mb 0.00 in0.0 mm 0.00 in0.0 mm 0.00 in0.0 mm
04:50 PM 56.8°F13.8°C 41.3°F5.2°C 56% 5.0 mph W8.0 kmh W 12.0 mph19.3 kmh 29.74 in1007.1 mb 0.00 in0.0 mm 0.00 in0.0 mm 0.00 in0.0 mm
04:45 PM 56.7°F13.7°C 41.6°F5.3°C 57% 4.0 mph WNW6.4 kmh WNW 11.0 mph17.7 kmh 29.74 in1007.1 mb 0.00 in0.0 mm 0.00 in0.0 mm 0.00 in0.0 mm
04:40 PM 56.6°F13.7°C 41.1°F5.1°C 56% 5.0 mph WNW8.0 kmh WNW 12.0 mph19.3 kmh 29.74 in1007.1 mb 0.00 in0.0 mm 0.00 in0.0 mm 0.00 in0.0 mm
04:35 PM 56.7°F13.7°C 41.2°F5.1°C 56% 7.0 mph WNW11.3 kmh WNW 14.0 mph22.5 kmh 29.74 in1007.1 mb 0.00 in0.0 mm 0.00 in0.0 mm 0.00 in0.0 mm
04:30 PM 56.8°F13.8°C 41.3°F5.2°C 56% 4.0 mph WNW6.4 kmh WNW 13.0 mph20.9 kmh 29.73 in1006.8 mb 0.00 in0.0 mm 0.00 in0.0 mm 0.00 in0.0 mm
04:25 PM 57.0°F13.9°C 41.0°F5.0°C 55% 6.0 mph W9.7 kmh W 15.0 mph24.1 kmh 29.73 in1006.8 mb 0.00 in0.0 mm 0.00 in0.0 mm 0.00 in0.0 mm
04:20 PM 57.1°F13.9°C 41.1°F5.1°C 55% 4.0 mph WNW6.4 kmh WNW 10.0 mph16.1 kmh 29.73 in1006.8 mb 0.00 in0.0 mm 0.00 in0.0 mm 0.00 in0.0 mm
04:15 PM 57.2°F14.0°C 40.7°F4.8°C 54% 5.0 mph WNW8.0 kmh WNW 13.0 mph20.9 kmh 29.72 in1006.4 mb 0.00 in0.0 mm 0.00 in0.0 mm 0.00 in0.0 mm
04:10 PM 57.3°F14.1°C 40.8°F4.9°C 54% 6.0 mph NW9.7 kmh NW 15.0 mph24.1 kmh 29.72 in1006.4 mb 0.00 in0.0 mm 0.00 in0.0 mm 0.00 in0.0 mm
04:05 PM 57.3°F14.1°C 41.3°F5.2°C 55% 6.0 mph WNW9.7 kmh WNW 12.0 mph19.3 kmh 29.72 in1006.4 mb 0.00 in0.0 mm 0.00 in0.0 mm 0.00 in0.0 mm
04:00 PM 57.4°F14.1°C 41.4°F5.2°C 55% 4.0 mph NW6.4 kmh NW 8.0 mph12.9 kmh 29.72 in1006.4 mb 0.00 in0.0 mm 0.00 in0.0 mm 0.00 in0.0 mm
03:55 PM 57.5°F14.2°C 41.0°F5.0°C 54% 7.0 mph WNW11.3 kmh WNW 17.0 mph27.4 kmh 29.72 in1006.4 mb 0.00 in0.0 mm 0.00 in0.0 mm 0.00 in0.0 mm
03:50 PM 57.8°F14.3°C 40.8°F4.9°C 53% 6.0 mph NW9.7 kmh NW 17.0 mph27.4 kmh 29.72 in1006.4 mb 0.00 in0.0 mm 0.00 in0.0 mm 0.00 in0.0 mm
03:45 PM 57.8°F14.3°C 41.3°F5.2°C 54% 6.0 mph WNW9.7 kmh WNW 13.0 mph20.9 kmh 29.71 in1006.1 mb 0.00 in0.0 mm 0.00 in0.0 mm 0.00 in0.0 mm
03:40 PM 57.9°F14.4°C 41.4°F5.2°C 54% 4.0 mph WNW6.4 kmh WNW 14.0 mph22.5 kmh 29.71 in1006.1 mb 0.00 in0.0 mm 0.00 in0.0 mm 0.00 in0.0 mm
03:35 PM 57.8°F14.3°C 41.3°F5.2°C 54% 6.0 mph WNW9.7 kmh WNW 13.0 mph20.9 kmh 29.71 in1006.1 mb 0.00 in0.0 mm 0.00 in0.0 mm 0.00 in0.0 mm
03:30 PM 57.8°F14.3°C 40.8°F4.9°C 53% 7.0 mph NW11.3 kmh NW 15.0 mph24.1 kmh 29.71 in1006.1 mb 0.00 in0.0 mm 0.00 in0.0 mm 0.00 in0.0 mm
03:25 PM 57.7°F14.3°C 41.2°F5.1°C 54% 8.0 mph WNW12.9 kmh WNW 18.0 mph29.0 kmh 29.70 in1005.8 mb 0.00 in0.0 mm 0.00 in0.0 mm 0.00 in0.0 mm
03:20 PM 57.8°F14.3°C 41.3°F5.2°C 54% 8.0 mph WNW12.9 kmh WNW 17.0 mph27.4 kmh 29.70 in1005.8 mb 0.00 in0.0 mm 0.00 in0.0 mm 0.00 in0.0 mm
03:15 PM 57.6°F14.2°C 41.1°F5.1°C 54% 7.0 mph WNW11.3 kmh WNW 15.0 mph24.1 kmh 29.70 in1005.8 mb 0.00 in0.0 mm 0.00 in0.0 mm 0.00 in0.0 mm
03:10 PM 57.5°F14.2°C 41.5°F5.3°C 55% 7.0 mph WNW11.3 kmh WNW 11.0 mph17.7 kmh 29.70 in1005.8 mb 0.00 in0.0 mm 0.00 in0.0 mm 0.00 in0.0 mm
03:05 PM 57.1°F13.9°C 41.1°F5.1°C 55% 7.0 mph WNW11.3 kmh WNW 15.0 mph24.1 kmh 29.70 in1005.8 mb 0.00 in0.0 mm 0.00 in0.0 mm 0.00 in0.0 mm
03:00 PM 57.0°F13.9°C 41.5°F5.3°C 56% 5.0 mph W8.0 kmh W 14.0 mph22.5 kmh 29.70 in1005.8 mb 0.00 in0.0 mm 0.00 in0.0 mm 0.00 in0.0 mm
02:55 PM 57.1°F13.9°C 41.6°F5.3°C 56% 4.0 mph WSW6.4 kmh WSW 13.0 mph20.9 kmh 29.70 in1005.8 mb 0.00 in0.0 mm 0.00 in0.0 mm 0.00 in0.0 mm
02:50 PM 56.9°F13.8°C 40.9°F4.9°C 55% 6.0 mph WNW9.7 kmh WNW 13.0 mph20.9 kmh 29.70 in1005.8 mb 0.00 in0.0 mm 0.00 in0.0 mm 0.00 in0.0 mm
02:45 PM 56.9°F13.8°C 41.4°F5.2°C 56% 5.0 mph WNW8.0 kmh WNW 14.0 mph22.5 kmh 29.70 in1005.8 mb 0.00 in0.0 mm 0.00 in0.0 mm 0.00 in0.0 mm
02:40 PM 57.2°F14.0°C 41.2°F5.1°C 55% 6.0 mph W9.7 kmh W 13.0 mph20.9 kmh 29.70 in1005.8 mb 0.00 in0.0 mm 0.00 in0.0 mm 0.00 in0.0 mm
02:35 PM 57.5°F14.2°C 41.5°F5.3°C 55% 5.0 mph WNW8.0 kmh WNW 13.0 mph20.9 kmh 29.69 in1005.4 mb 0.00 in0.0 mm 0.00 in0.0 mm 0.00 in0.0 mm
02:30 PM 57.5°F14.2°C 41.5°F5.3°C 55% 5.0 mph W8.0 kmh W 12.0 mph19.3 kmh 29.69 in1005.4 mb 0.00 in0.0 mm 0.00 in0.0 mm 0.00 in0.0 mm
02:25 PM 57.2°F14.0°C 41.2°F5.1°C 55% 6.0 mph W9.7 kmh W 16.0 mph25.7 kmh 29.69 in1005.4 mb 0.00 in0.0 mm 0.00 in0.0 mm 0.00 in0.0 mm
02:20 PM 57.1°F13.9°C 41.6°F5.3°C 56% 5.0 mph WNW8.0 kmh WNW 11.0 mph17.7 kmh 29.69 in1005.4 mb 0.00 in0.0 mm 0.00 in0.0 mm 0.00 in0.0 mm
02:15 PM 56.7°F13.7°C 41.2°F5.1°C 56% 4.0 mph W6.4 kmh W 10.0 mph16.1 kmh 29.69 in1005.4 mb 0.00 in0.0 mm 0.00 in0.0 mm 0.00 in0.0 mm
02:10 PM 56.5°F13.6°C 41.5°F5.3°C 57% 5.0 mph WNW8.0 kmh WNW 12.0 mph19.3 kmh 29.69 in1005.4 mb 0.00 in0.0 mm 0.00 in0.0 mm 0.00 in0.0 mm
02:05 PM 56.6°F13.7°C 41.1°F5.1°C 56% 6.0 mph WNW9.7 kmh WNW 11.0 mph17.7 kmh 29.69 in1005.4 mb 0.00 in0.0 mm 0.00 in0.0 mm 0.00 in0.0 mm
02:00 PM 56.8°F13.8°C 41.3°F5.2°C 56% 6.0 mph NW9.7 kmh NW 15.0 mph24.1 kmh 29.69 in1005.4 mb 0.00 in0.0 mm 0.00 in0.0 mm 0.00 in0.0 mm
01:55 PM 56.7°F13.7°C 41.2°F5.1°C 56% 7.0 mph WNW11.3 kmh WNW 17.0 mph27.4 kmh 29.68 in1005.1 mb 0.00 in0.0 mm 0.00 in0.0 mm 0.00 in0.0 mm
01:50 PM 56.8°F13.8°C 40.8°F4.9°C 55% 9.0 mph NW14.5 kmh NW 17.0 mph27.4 kmh 29.68 in1005.1 mb 0.00 in0.0 mm 0.00 in0.0 mm 0.00 in0.0 mm
01:45 PM 57.1°F13.9°C 40.6°F4.8°C 54% 8.0 mph WNW12.9 kmh WNW 18.0 mph29.0 kmh 29.68 in1005.1 mb 0.00 in0.0 mm 0.00 in0.0 mm 0.00 in0.0 mm
01:40 PM 57.2°F14.0°C 40.7°F4.8°C 54% 7.0 mph WNW11.3 kmh WNW 19.0 mph30.6 kmh 29.68 in1005.1 mb 0.00 in0.0 mm 0.00 in0.0 mm 0.00 in0.0 mm
01:35 PM 56.7°F13.7°C 40.7°F4.8°C 55% 7.0 mph W11.3 kmh W 19.0 mph30.6 kmh 29.68 in1005.1 mb 0.00 in0.0 mm 0.00 in0.0 mm 0.00 in0.0 mm
01:30 PM 56.6°F13.7°C 40.6°F4.8°C 55% 7.0 mph W11.3 kmh W 16.0 mph25.7 kmh 29.68 in1005.1 mb 0.00 in0.0 mm 0.00 in0.0 mm 0.00 in0.0 mm
01:25 PM 56.5°F13.6°C 41.0°F5.0°C 56% 7.0 mph W11.3 kmh W 16.0 mph25.7 kmh 29.68 in1005.1 mb 0.00 in0.0 mm 0.00 in0.0 mm 0.00 in0.0 mm
01:20 PM 56.4°F13.6°C 40.9°F4.9°C 56% 5.0 mph WNW8.0 kmh WNW 14.0 mph22.5 kmh 29.68 in1005.1 mb 0.00 in0.0 mm 0.00 in0.0 mm 0.00 in0.0 mm
01:15 PM 56.6°F13.7°C 41.5°F5.3°C 57% 4.0 mph W6.4 kmh W 11.0 mph17.7 kmh 29.68 in1005.1 mb 0.00 in0.0 mm 0.00 in0.0 mm 0.00 in0.0 mm
01:10 PM 56.6°F13.7°C 41.1°F5.1°C 56% 7.0 mph NW11.3 kmh NW 18.0 mph29.0 kmh 29.68 in1005.1 mb 0.00 in0.0 mm 0.00 in0.0 mm 0.00 in0.0 mm
01:05 PM 56.8°F13.8°C 41.3°F5.2°C 56% 7.0 mph WNW11.3 kmh WNW 14.0 mph22.5 kmh 29.68 in1005.1 mb 0.00 in0.0 mm 0.00 in0.0 mm 0.00 in0.0 mm
01:00 PM 56.8°F13.8°C 41.3°F5.2°C 56% 8.0 mph WNW12.9 kmh WNW 18.0 mph29.0 kmh 29.68 in1005.1 mb 0.00 in0.0 mm 0.00 in0.0 mm 0.00 in0.0 mm
12:55 PM 56.5°F13.6°C 41.5°F5.3°C 57% 8.0 mph WNW12.9 kmh WNW 19.0 mph30.6 kmh 29.68 in1005.1 mb 0.00 in0.0 mm 0.00 in0.0 mm 0.00 in0.0 mm
12:50 PM 56.0°F13.3°C 41.4°F5.2°C 58% 8.0 mph WNW12.9 kmh WNW 21.0 mph33.8 kmh 29.68 in1005.1 mb 0.00 in0.0 mm 0.00 in0.0 mm 0.00 in0.0 mm
12:45 PM 56.2°F13.4°C 41.6°F5.3°C 58% 8.0 mph WNW12.9 kmh WNW 21.0 mph33.8 kmh 29.68 in1005.1 mb 0.00 in0.0 mm 0.00 in0.0 mm 0.00 in0.0 mm
12:40 PM 55.9°F13.3°C 41.8°F5.4°C 59% 7.0 mph WNW11.3 kmh WNW 14.0 mph22.5 kmh 29.68 in1005.1 mb 0.00 in0.0 mm 0.00 in0.0 mm 0.00 in0.0 mm
12:35 PM 55.9°F13.3°C 41.8°F5.4°C 59% 6.0 mph WNW9.7 kmh WNW 16.0 mph25.7 kmh 29.68 in1005.1 mb 0.00 in0.0 mm 0.00 in0.0 mm 0.00 in0.0 mm
12:30 PM 55.8°F13.2°C 41.7°F5.4°C 59% 7.0 mph WNW11.3 kmh WNW 15.0 mph24.1 kmh 29.68 in1005.1 mb 0.00 in0.0 mm 0.00 in0.0 mm 0.00 in0.0 mm
12:25 PM 55.2°F12.9°C 41.6°F5.3°C 60% 5.0 mph WNW8.0 kmh WNW 14.0 mph22.5 kmh 29.68 in1005.1 mb 0.00 in0.0 mm 0.00 in0.0 mm 0.00 in0.0 mm
12:20 PM 55.3°F12.9°C 41.7°F5.4°C 60% 7.0 mph WNW11.3 kmh WNW 16.0 mph25.7 kmh 29.68 in1005.1 mb 0.00 in0.0 mm 0.00 in0.0 mm 0.00 in0.0 mm
12:15 PM 55.3°F12.9°C 41.7°F5.4°C 60% 7.0 mph W11.3 kmh W 15.0 mph24.1 kmh 29.68 in1005.1 mb 0.00 in0.0 mm 0.00 in0.0 mm 0.00 in0.0 mm
12:10 PM 55.5°F13.1°C 42.3°F5.7°C 61% 6.0 mph W9.7 kmh W 10.0 mph16.1 kmh 29.68 in1005.1 mb 0.00 in0.0 mm 0.00 in0.0 mm 0.00 in0.0 mm
12:05 PM 55.5°F13.1°C 42.7°F5.9°C 62% 6.0 mph W9.7 kmh W 14.0 mph22.5 kmh 29.68 in1005.1 mb 0.00 in0.0 mm 0.00 in0.0 mm 0.00 in0.0 mm
12:00 PM 54.9°F12.7°C 42.5°F5.8°C 63% 5.0 mph WSW8.0 kmh WSW 15.0 mph24.1 kmh 29.68 in1005.1 mb 0.00 in0.0 mm 0.00 in0.0 mm 0.00 in0.0 mm
11:55 AM 54.8°F12.7°C 42.9°F6.1°C 64% 5.0 mph WNW8.0 kmh WNW 12.0 mph19.3 kmh 29.68 in1005.1 mb 0.00 in0.0 mm 0.00 in0.0 mm 0.00 in0.0 mm
11:50 AM 54.4°F12.4°C 42.5°F5.8°C 64% 4.0 mph W6.4 kmh W 13.0 mph20.9 kmh 29.68 in1005.1 mb 0.00 in0.0 mm 0.00 in0.0 mm 0.00 in0.0 mm
11:45 AM 54.4°F12.4°C 42.1°F5.6°C 63% 5.0 mph WSW8.0 kmh WSW 12.0 mph19.3 kmh 29.68 in1005.1 mb 0.00 in0.0 mm 0.00 in0.0 mm 0.00 in0.0 mm
11:40 AM 54.3°F12.4°C 42.4°F5.8°C 64% 5.0 mph WNW8.0 kmh WNW 11.0 mph17.7 kmh 29.68 in1005.1 mb 0.00 in0.0 mm 0.00 in0.0 mm 0.00 in0.0 mm
11:35 AM 54.3°F12.4°C 42.4°F5.8°C 64% 5.0 mph W8.0 kmh W 12.0 mph19.3 kmh 29.68 in1005.1 mb 0.00 in0.0 mm 0.00 in0.0 mm 0.00 in0.0 mm
11:30 AM 54.2°F12.3°C 42.3°F5.7°C 64% 6.0 mph WNW9.7 kmh WNW 14.0 mph22.5 kmh 29.68 in1005.1 mb 0.00 in0.0 mm 0.00 in0.0 mm 0.00 in0.0 mm
11:25 AM 54.5°F12.5°C 42.6°F5.9°C 64% 5.0 mph WNW8.0 kmh WNW 9.0 mph14.5 kmh 29.68 in1005.1 mb 0.00 in0.0 mm 0.00 in0.0 mm 0.00 in0.0 mm
11:20 AM 54.5°F12.5°C 42.6°F5.9°C 64% 5.0 mph WSW8.0 kmh WSW 14.0 mph22.5 kmh 29.67 in1004.7 mb 0.00 in0.0 mm 0.00 in0.0 mm 0.00 in0.0 mm
11:15 AM 54.5°F12.5°C 43.0°F6.1°C 65% 4.0 mph WNW6.4 kmh WNW 11.0 mph17.7 kmh 29.67 in1004.7 mb 0.00 in0.0 mm 0.00 in0.0 mm 0.00 in0.0 mm
11:10 AM 54.2°F12.3°C 42.7°F5.9°C 65% 3.0 mph WNW4.8 kmh WNW 10.0 mph16.1 kmh 29.67 in1004.7 mb 0.00 in0.0 mm 0.00 in0.0 mm 0.00 in0.0 mm
11:05 AM 53.8°F12.1°C 42.3°F5.7°C 65% 6.0 mph WNW9.7 kmh WNW 12.0 mph19.3 kmh 29.67 in1004.7 mb 0.00 in0.0 mm 0.00 in0.0 mm 0.00 in0.0 mm
11:00 AM 53.8°F12.1°C 42.7°F5.9°C 66% 6.0 mph WNW9.7 kmh WNW 13.0 mph20.9 kmh 29.67 in1004.7 mb 0.00 in0.0 mm 0.00 in0.0 mm 0.00 in0.0 mm
10:55 AM 54.0°F12.2°C 42.9°F6.1°C 66% 3.0 mph W4.8 kmh W 8.0 mph12.9 kmh 29.67 in1004.7 mb 0.00 in0.0 mm 0.00 in0.0 mm 0.00 in0.0 mm
10:50 AM 54.0°F12.2°C 42.9°F6.1°C 66% 3.0 mph WSW4.8 kmh WSW 9.0 mph14.5 kmh 29.67 in1004.7 mb 0.00 in0.0 mm 0.00 in0.0 mm 0.00 in0.0 mm
10:45 AM 53.9°F12.2°C 42.8°F6.0°C 66% 4.0 mph W6.4 kmh W 10.0 mph16.1 kmh 29.67 in1004.7 mb 0.00 in0.0 mm 0.00 in0.0 mm 0.00 in0.0 mm
10:40 AM 53.9°F12.2°C 42.8°F6.0°C 66% 3.0 mph W4.8 kmh W 9.0 mph14.5 kmh 29.66 in1004.4 mb 0.00 in0.0 mm 0.00 in0.0 mm 0.00 in0.0 mm
10:35 AM 53.9°F12.2°C 42.4°F5.8°C 65% 3.0 mph WSW4.8 kmh WSW 8.0 mph12.9 kmh 29.66 in1004.4 mb 0.00 in0.0 mm 0.00 in0.0 mm 0.00 in0.0 mm
10:30 AM 53.8°F12.1°C 42.7°F5.9°C 66% 4.0 mph WSW6.4 kmh WSW 9.0 mph14.5 kmh 29.66 in1004.4 mb 0.00 in0.0 mm 0.00 in0.0 mm 0.00 in0.0 mm
10:25 AM 54.1°F12.3°C 43.4°F6.3°C 67% 3.0 mph W4.8 kmh W 14.0 mph22.5 kmh 29.66 in1004.4 mb 0.00 in0.0 mm 0.00 in0.0 mm 0.00 in0.0 mm
10:20 AM 53.8°F12.1°C 42.7°F5.9°C 66% 5.0 mph WNW8.0 kmh WNW 11.0 mph17.7 kmh 29.66 in1004.4 mb 0.00 in0.0 mm 0.00 in0.0 mm 0.00 in0.0 mm
10:15 AM 53.9°F12.2°C 43.2°F6.2°C 67% 3.0 mph NW4.8 kmh NW 10.0 mph16.1 kmh 29.65 in1004.1 mb 0.00 in0.0 mm 0.00 in0.0 mm 0.00 in0.0 mm
10:10 AM 53.6°F12.0°C 42.9°F6.1°C 67% 4.0 mph W6.4 kmh W 11.0 mph17.7 kmh 29.65 in1004.1 mb 0.00 in0.0 mm 0.00 in0.0 mm 0.00 in0.0 mm
10:05 AM 53.5°F11.9°C 43.2°F6.2°C 68% 3.0 mph WNW4.8 kmh WNW 8.0 mph12.9 kmh 29.65 in1004.1 mb 0.00 in0.0 mm 0.00 in0.0 mm 0.00 in0.0 mm
10:00 AM 53.2°F11.8°C 42.9°F6.1°C 68% 2.0 mph W3.2 kmh W 8.0 mph12.9 kmh 29.65 in1004.1 mb 0.00 in0.0 mm 0.00 in0.0 mm 0.00 in0.0 mm
09:55 AM 53.0°F11.7°C 43.1°F6.2°C 69% 4.0 mph WNW6.4 kmh WNW 10.0 mph16.1 kmh 29.65 in1004.1 mb 0.00 in0.0 mm 0.00 in0.0 mm 0.00 in0.0 mm
09:50 AM 52.7°F11.5°C 43.2°F6.2°C 70% 4.0 mph WSW6.4 kmh WSW 11.0 mph17.7 kmh 29.64 in1003.7 mb 0.00 in0.0 mm 0.00 in0.0 mm 0.00 in0.0 mm
09:45 AM 52.2°F11.2°C 43.4°F6.3°C 72% 4.0 mph W6.4 kmh W 11.0 mph17.7 kmh 29.64 in1003.7 mb 0.00 in0.0 mm 0.00 in0.0 mm 0.00 in0.0 mm
09:40 AM 52.1°F11.2°C 43.4°F6.3°C 72% 2.0 mph W3.2 kmh W 6.0 mph9.7 kmh 29.64 in1003.7 mb 0.00 in0.0 mm 0.00 in0.0 mm 0.00 in0.0 mm
09:35 AM 51.9°F11.1°C 43.5°F6.4°C 73% 3.0 mph WNW4.8 kmh WNW 9.0 mph14.5 kmh 29.64 in1003.7 mb 0.00 in0.0 mm 0.00 in0.0 mm 0.00 in0.0 mm
09:30 AM 51.7°F10.9°C 43.3°F6.3°C 73% 2.0 mph WNW3.2 kmh WNW 8.0 mph12.9 kmh 29.64 in1003.7 mb 0.00 in0.0 mm 0.00 in0.0 mm 0.00 in0.0 mm
09:25 AM 51.7°F10.9°C 43.3°F6.3°C 73% 2.0 mph W3.2 kmh W 7.0 mph11.3 kmh 29.64 in1003.7 mb 0.00 in0.0 mm 0.00 in0.0 mm 0.00 in0.0 mm
09:20 AM 51.5°F10.8°C 43.1°F6.2°C 73% 1.0 mph SW1.6 kmh SW 6.0 mph9.7 kmh 29.63 in1003.4 mb 0.00 in0.0 mm 0.00 in0.0 mm 0.00 in0.0 mm
09:15 AM 51.4°F10.8°C 43.4°F6.3°C 74% 2.0 mph W3.2 kmh W 6.0 mph9.7 kmh 29.63 in1003.4 mb 0.00 in0.0 mm 0.00 in0.0 mm 0.00 in0.0 mm
09:10 AM 51.2°F10.7°C 43.2°F6.2°C 74% 2.0 mph SW3.2 kmh SW 8.0 mph12.9 kmh 29.63 in1003.4 mb 0.00 in0.0 mm 0.00 in0.0 mm 0.00 in0.0 mm
09:05 AM 51.1°F10.6°C 43.1°F6.2°C 74% 2.0 mph SW3.2 kmh SW 7.0 mph11.3 kmh 29.62 in1003.0 mb 0.00 in0.0 mm 0.00 in0.0 mm 0.00 in0.0 mm
09:00 AM 50.9°F10.5°C 43.3°F6.3°C 75% 1.0 mph WSW1.6 kmh WSW 6.0 mph9.7 kmh 29.62 in1003.0 mb 0.00 in0.0 mm 0.00 in0.0 mm 0.00 in0.0 mm
08:55 AM 50.8°F10.4°C 43.2°F6.2°C 75% 1.0 mph WSW1.6 kmh WSW 5.0 mph8.0 kmh 29.62 in1003.0 mb 0.00 in0.0 mm 0.00 in0.0 mm 0.00 in0.0 mm
08:50 AM 50.7°F10.4°C 43.1°F6.2°C 75% 1.0 mph W1.6 kmh W 3.0 mph4.8 kmh 29.62 in1003.0 mb 0.00 in0.0 mm 0.00 in0.0 mm 0.00 in0.0 mm
08:45 AM 50.6°F10.3°C 43.3°F6.3°C 76% 1.0 mph W1.6 kmh W 5.0 mph8.0 kmh 29.62 in1003.0 mb 0.00 in0.0 mm 0.00 in0.0 mm 0.00 in0.0 mm
08:40 AM 50.5°F10.3°C 43.2°F6.2°C 76% 2.0 mph W3.2 kmh W 7.0 mph11.3 kmh 29.62 in1003.0 mb 0.00 in0.0 mm 0.00 in0.0 mm 0.00 in0.0 mm
08:35 AM 50.3°F10.2°C 43.0°F6.1°C 76% 2.0 mph WSW3.2 kmh WSW 6.0 mph9.7 kmh 29.62 in1003.0 mb 0.00 in0.0 mm 0.00 in0.0 mm 0.00 in0.0 mm
08:30 AM 50.2°F10.1°C 42.9°F6.1°C 76% 2.0 mph W3.2 kmh W 3.0 mph4.8 kmh 29.61 in1002.7 mb 0.00 in0.0 mm 0.00 in0.0 mm 0.00 in0.0 mm
08:25 AM 50.1°F10.1°C 42.8°F6.0°C 76% 2.0 mph W3.2 kmh W 6.0 mph9.7 kmh 29.61 in1002.7 mb 0.00 in0.0 mm 0.00 in0.0 mm 0.00 in0.0 mm
08:20 AM 50.0°F10.0°C 42.7°F5.9°C 76% 2.0 mph WNW3.2 kmh WNW 8.0 mph12.9 kmh 29.61 in1002.7 mb 0.00 in0.0 mm 0.00 in0.0 mm 0.00 in0.0 mm
08:15 AM 49.9°F9.9°C 42.6°F5.9°C 76% 2.0 mph WSW3.2 kmh WSW 10.0 mph16.1 kmh 29.61 in1002.7 mb 0.00 in0.0 mm 0.00 in0.0 mm 0.00 in0.0 mm
08:10 AM 49.7°F9.8°C 42.4°F5.8°C 76% 2.0 mph WSW3.2 kmh WSW 7.0 mph11.3 kmh 29.60 in1002.4 mb 0.00 in0.0 mm 0.00 in0.0 mm 0.00 in0.0 mm
08:05 AM 49.6°F9.8°C 42.3°F5.7°C 76% 2.0 mph W3.2 kmh W 8.0 mph12.9 kmh 29.59 in1002.0 mb 0.00 in0.0 mm 0.00 in0.0 mm 0.00 in0.0 mm
08:00 AM 49.5°F9.7°C 42.3°F5.7°C 76% 2.0 mph WNW3.2 kmh WNW 9.0 mph14.5 kmh 29.59 in1002.0 mb 0.00 in0.0 mm 0.00 in0.0 mm 0.00 in0.0 mm
07:55 AM 49.4°F9.7°C 42.2°F5.7°C 76% 2.0 mph WNW3.2 kmh WNW 4.0 mph6.4 kmh 29.59 in1002.0 mb 0.00 in0.0 mm 0.00 in0.0 mm 0.00 in0.0 mm
07:50 AM 49.4°F9.7°C 42.2°F5.7°C 76% 1.0 mph W1.6 kmh W 5.0 mph8.0 kmh 29.58 in1001.7 mb 0.00 in0.0 mm 0.00 in0.0 mm 0.00 in0.0 mm
07:45 AM 49.4°F9.7°C 42.2°F5.7°C 76% 3.0 mph W4.8 kmh W 7.0 mph11.3 kmh 29.58 in1001.7 mb 0.00 in0.0 mm 0.00 in0.0 mm 0.00 in0.0 mm
07:40 AM 49.3°F9.6°C 42.4°F5.8°C 77% 2.0 mph W3.2 kmh W 6.0 mph9.7 kmh 29.58 in1001.7 mb 0.00 in0.0 mm 0.00 in0.0 mm 0.00 in0.0 mm
07:35 AM 49.3°F9.6°C 42.4°F5.8°C 77% 2.0 mph SW3.2 kmh SW 7.0 mph11.3 kmh 29.57 in1001.4 mb 0.00 in0.0 mm 0.00 in0.0 mm 0.00 in0.0 mm
07:30 AM 49.2°F9.6°C 42.3°F5.7°C 77% 3.0 mph WSW4.8 kmh WSW 9.0 mph14.5 kmh 29.57 in1001.4 mb 0.00 in0.0 mm 0.00 in0.0 mm 0.00 in0.0 mm
07:25 AM 49.1°F9.5°C 42.2°F5.7°C 77% 3.0 mph W4.8 kmh W 6.0 mph9.7 kmh 29.57 in1001.4 mb 0.00 in0.0 mm 0.00 in0.0 mm 0.00 in0.0 mm
07:20 AM 49.0°F9.4°C 42.1°F5.6°C 77% 4.0 mph W6.4 kmh W 7.0 mph11.3 kmh 29.57 in1001.4 mb 0.00 in0.0 mm 0.00 in0.0 mm 0.00 in0.0 mm
07:15 AM 49.0°F9.4°C 42.1°F5.6°C 77% 4.0 mph W6.4 kmh W 8.0 mph12.9 kmh 29.57 in1001.4 mb 0.00 in0.0 mm 0.00 in0.0 mm 0.00 in0.0 mm
07:10 AM 48.9°F9.4°C 42.0°F5.6°C 77% 2.0 mph W3.2 kmh W 10.0 mph16.1 kmh 29.56 in1001.0 mb 0.00 in0.0 mm 0.00 in0.0 mm 0.00 in0.0 mm
07:05 AM 48.8°F9.3°C 41.9°F5.5°C 77% 2.0 mph SW3.2 kmh SW 5.0 mph8.0 kmh 29.56 in1001.0 mb 0.00 in0.0 mm 0.00 in0.0 mm 0.00 in0.0 mm
07:00 AM 48.7°F9.3°C 41.8°F5.4°C 77% 1.0 mph WNW1.6 kmh WNW 4.0 mph6.4 kmh 29.56 in1001.0 mb 0.00 in0.0 mm 0.00 in0.0 mm 0.00 in0.0 mm
06:55 AM 48.6°F9.2°C 41.7°F5.4°C 77% 2.0 mph W3.2 kmh W 5.0 mph8.0 kmh 29.55 in1000.7 mb 0.00 in0.0 mm 0.00 in0.0 mm 0.00 in0.0 mm
06:50 AM 48.5°F9.2°C 41.6°F5.3°C 77% 2.0 mph W3.2 kmh W 11.0 mph17.7 kmh 29.55 in1000.7 mb 0.00 in0.0 mm 0.00 in0.0 mm 0.00 in0.0 mm
06:45 AM 48.5°F9.2°C 41.6°F5.3°C 77% 2.0 mph WNW3.2 kmh WNW 7.0 mph11.3 kmh 29.55 in1000.7 mb 0.00 in0.0 mm 0.00 in0.0 mm 0.00 in0.0 mm
06:40 AM 48.4°F9.1°C 41.2°F5.1°C 76% 3.0 mph W4.8 kmh W 11.0 mph17.7 kmh 29.55 in1000.7 mb 0.00 in0.0 mm 0.00 in0.0 mm 0.00 in0.0 mm
06:35 AM 48.4°F9.1°C 41.2°F5.1°C 76% 2.0 mph W3.2 kmh W 8.0 mph12.9 kmh 29.55 in1000.7 mb 0.00 in0.0 mm 0.00 in0.0 mm 0.00 in0.0 mm
06:30 AM 48.5°F9.2°C 41.3°F5.2°C 76% 2.0 mph WNW3.2 kmh WNW 8.0 mph12.9 kmh 29.54 in1000.3 mb 0.00 in0.0 mm 0.00 in0.0 mm 0.00 in0.0 mm
06:25 AM 48.5°F9.2°C 41.3°F5.2°C 76% 3.0 mph WNW4.8 kmh WNW 9.0 mph14.5 kmh 29.54 in1000.3 mb 0.00 in0.0 mm 0.00 in0.0 mm 0.00 in0.0 mm
06:20 AM 48.5°F9.2°C 41.3°F5.2°C 76% 3.0 mph W4.8 kmh W 9.0 mph14.5 kmh 29.53 in1000.0 mb 0.00 in0.0 mm 0.00 in0.0 mm 0.00 in0.0 mm
06:15 AM 48.5°F9.2°C 41.3°F5.2°C 76% 2.0 mph W3.2 kmh W 8.0 mph12.9 kmh 29.53 in1000.0 mb 0.00 in0.0 mm 0.00 in0.0 mm 0.00 in0.0 mm
06:10 AM 48.5°F9.2°C 41.3°F5.2°C 76% 3.0 mph W4.8 kmh W 9.0 mph14.5 kmh 29.53 in1000.0 mb 0.00 in0.0 mm 0.00 in0.0 mm 0.00 in0.0 mm
06:05 AM 48.5°F9.2°C 41.3°F5.2°C 76% 2.0 mph WNW3.2 kmh WNW 6.0 mph9.7 kmh 29.52 in999.7 mb 0.00 in0.0 mm 0.00 in0.0 mm 0.00 in0.0 mm
06:00 AM 48.5°F9.2°C 40.9°F4.9°C 75% 2.0 mph W3.2 kmh W 6.0 mph9.7 kmh 29.52 in999.7 mb 0.00 in0.0 mm 0.00 in0.0 mm 0.00 in0.0 mm
05:55 AM 48.5°F9.2°C 40.9°F4.9°C 75% 3.0 mph SW4.8 kmh SW 8.0 mph12.9 kmh 29.52 in999.7 mb 0.00 in0.0 mm 0.00 in0.0 mm 0.00 in0.0 mm
05:50 AM 48.6°F9.2°C 41.0°F5.0°C 75% 3.0 mph W4.8 kmh W 7.0 mph11.3 kmh 29.52 in999.7 mb 0.00 in0.0 mm 0.00 in0.0 mm 0.00 in0.0 mm
05:45 AM 48.6°F9.2°C 41.0°F5.0°C 75% 2.0 mph W3.2 kmh W 5.0 mph8.0 kmh 29.51 in999.3 mb 0.00 in0.0 mm 0.00 in0.0 mm 0.00 in0.0 mm
05:40 AM 48.7°F9.3°C 40.8°F4.9°C 74% 3.0 mph W4.8 kmh W 8.0 mph12.9 kmh 29.51 in999.3 mb 0.00 in0.0 mm 0.00 in0.0 mm 0.00 in0.0 mm
05:35 AM 48.8°F9.3°C 41.2°F5.1°C 75% 3.0 mph W4.8 kmh W 8.0 mph12.9 kmh 29.51 in999.3 mb 0.00 in0.0 mm 0.00 in0.0 mm 0.00 in0.0 mm
05:30 AM 48.8°F9.3°C 40.9°F4.9°C 74% 4.0 mph W6.4 kmh W 8.0 mph12.9 kmh 29.51 in999.3 mb 0.00 in0.0 mm 0.00 in0.0 mm 0.00 in0.0 mm
05:25 AM 48.8°F9.3°C 40.9°F4.9°C 74% 4.0 mph W6.4 kmh W 8.0 mph12.9 kmh 29.51 in999.3 mb 0.00 in0.0 mm 0.00 in0.0 mm 0.00 in0.0 mm
05:20 AM 48.8°F9.3°C 40.9°F4.9°C 74% 4.0 mph W6.4 kmh W 10.0 mph16.1 kmh 29.51 in999.3 mb 0.00 in0.0 mm 0.00 in0.0 mm 0.00 in0.0 mm
05:15 AM 48.8°F9.3°C 40.9°F4.9°C 74% 4.0 mph W6.4 kmh W 8.0 mph12.9 kmh 29.50 in999.0 mb 0.00 in0.0 mm 0.00 in0.0 mm 0.00 in0.0 mm
05:10 AM 48.8°F9.3°C 40.9°F4.9°C 74% 3.0 mph W4.8 kmh W 7.0 mph11.3 kmh 29.50 in999.0 mb 0.00 in0.0 mm 0.00 in0.0 mm 0.00 in0.0 mm
05:05 AM 48.9°F9.4°C 41.0°F5.0°C 74% 5.0 mph W8.0 kmh W 12.0 mph19.3 kmh 29.49 in998.6 mb 0.00 in0.0 mm 0.00 in0.0 mm 0.00 in0.0 mm
05:00 AM 48.9°F9.4°C 41.0°F5.0°C 74% 4.0 mph WSW6.4 kmh WSW 8.0 mph12.9 kmh 29.49 in998.6 mb 0.00 in0.0 mm 0.00 in0.0 mm 0.00 in0.0 mm
04:55 AM 48.9°F9.4°C 41.0°F5.0°C 74% 4.0 mph W6.4 kmh W 10.0 mph16.1 kmh 29.49 in998.6 mb 0.00 in0.0 mm 0.00 in0.0 mm 0.00 in0.0 mm
04:50 AM 49.0°F9.4°C 41.1°F5.1°C 74% 3.0 mph W4.8 kmh W 11.0 mph17.7 kmh 29.49 in998.6 mb 0.00 in0.0 mm 0.00 in0.0 mm 0.00 in0.0 mm
04:45 AM 49.0°F9.4°C 40.7°F4.8°C 73% 3.0 mph WSW4.8 kmh WSW 7.0 mph11.3 kmh 29.48 in998.3 mb 0.00 in0.0 mm 0.00 in0.0 mm 0.00 in0.0 mm
04:40 AM 49.1°F9.5°C 40.8°F4.9°C 73% 3.0 mph W4.8 kmh W 9.0 mph14.5 kmh 29.48 in998.3 mb 0.00 in0.0 mm 0.00 in0.0 mm 0.00 in0.0 mm
04:35 AM 49.1°F9.5°C 40.8°F4.9°C 73% 2.0 mph W3.2 kmh W 5.0 mph8.0 kmh 29.48 in998.3 mb 0.00 in0.0 mm 0.00 in0.0 mm 0.00 in0.0 mm
04:30 AM 49.2°F9.6°C 40.9°F4.9°C 73% 2.0 mph WNW3.2 kmh WNW 9.0 mph14.5 kmh 29.48 in998.3 mb 0.00 in0.0 mm 0.00 in0.0 mm 0.00 in0.0 mm
04:25 AM 49.2°F9.6°C 40.9°F4.9°C 73% 3.0 mph WSW4.8 kmh WSW 9.0 mph14.5 kmh 29.48 in998.3 mb 0.00 in0.0 mm 0.00 in0.0 mm 0.00 in0.0 mm
04:20 AM 49.2°F9.6°C 40.9°F4.9°C 73% 4.0 mph NW6.4 kmh NW 7.0 mph11.3 kmh 29.48 in998.3 mb 0.00 in0.0 mm 0.00 in0.0 mm 0.00 in0.0 mm
04:15 AM 49.2°F9.6°C 40.9°F4.9°C 73% 3.0 mph W4.8 kmh W 11.0 mph17.7 kmh 29.47 in998.0 mb 0.00 in0.0 mm 0.00 in0.0 mm 0.00 in0.0 mm
04:10 AM 49.2°F9.6°C 40.9°F4.9°C 73% 3.0 mph WNW4.8 kmh WNW 8.0 mph12.9 kmh 29.47 in998.0 mb 0.00 in0.0 mm 0.00 in0.0 mm 0.00 in0.0 mm
04:05 AM 49.3°F9.6°C 41.0°F5.0°C 73% 3.0 mph WNW4.8 kmh WNW 13.0 mph20.9 kmh 29.47 in998.0 mb 0.00 in0.0 mm 0.00 in0.0 mm 0.00 in0.0 mm
04:00 AM 49.3°F9.6°C 41.0°F5.0°C 73% 2.0 mph W3.2 kmh W 6.0 mph9.7 kmh 29.47 in998.0 mb 0.00 in0.0 mm 0.00 in0.0 mm 0.00 in0.0 mm
03:55 AM 49.3°F9.6°C 41.0°F5.0°C 73% 2.0 mph WSW3.2 kmh WSW 6.0 mph9.7 kmh 29.46 in997.6 mb 0.00 in0.0 mm 0.00 in0.0 mm 0.00 in0.0 mm
03:50 AM 49.4°F9.7°C 41.1°F5.1°C 73% 3.0 mph WSW4.8 kmh WSW 7.0 mph11.3 kmh 29.46 in997.6 mb 0.00 in0.0 mm 0.00 in0.0 mm 0.00 in0.0 mm
03:45 AM 49.4°F9.7°C 41.1°F5.1°C 73% 2.0 mph W3.2 kmh W 9.0 mph14.5 kmh 29.46 in997.6 mb 0.00 in0.0 mm 0.00 in0.0 mm 0.00 in0.0 mm
03:40 AM 49.4°F9.7°C 41.1°F5.1°C 73% 3.0 mph W4.8 kmh W 8.0 mph12.9 kmh 29.46 in997.6 mb 0.00 in0.0 mm 0.00 in0.0 mm 0.00 in0.0 mm
03:35 AM 49.4°F9.7°C 41.1°F5.1°C 73% 4.0 mph W6.4 kmh W 12.0 mph19.3 kmh 29.45 in997.3 mb 0.00 in0.0 mm 0.00 in0.0 mm 0.00 in0.0 mm
03:30 AM 49.5°F9.7°C 41.2°F5.1°C 73% 3.0 mph W4.8 kmh W 10.0 mph16.1 kmh 29.45 in997.3 mb 0.00 in0.0 mm 0.00 in0.0 mm 0.00 in0.0 mm
03:25 AM 49.5°F9.7°C 41.2°F5.1°C 73% 4.0 mph W6.4 kmh W 9.0 mph14.5 kmh 29.45 in997.3 mb 0.00 in0.0 mm 0.00 in0.0 mm 0.00 in0.0 mm
03:20 AM 49.5°F9.7°C 41.2°F5.1°C 73% 4.0 mph W6.4 kmh W 15.0 mph24.1 kmh 29.45 in997.3 mb 0.00 in0.0 mm 0.00 in0.0 mm 0.00 in0.0 mm
03:15 AM 49.6°F9.8°C 41.3°F5.2°C 73% 5.0 mph W8.0 kmh W 10.0 mph16.1 kmh 29.45 in997.3 mb 0.00 in0.0 mm 0.00 in0.0 mm 0.00 in0.0 mm
03:10 AM 49.6°F9.8°C 41.3°F5.2°C 73% 5.0 mph W8.0 kmh W 10.0 mph16.1 kmh 29.45 in997.3 mb 0.00 in0.0 mm 0.00 in0.0 mm 0.00 in0.0 mm
03:05 AM 49.6°F9.8°C 41.3°F5.2°C 73% 3.0 mph W4.8 kmh W 6.0 mph9.7 kmh 29.45 in997.3 mb 0.00 in0.0 mm 0.00 in0.0 mm 0.00 in0.0 mm
03:00 AM 49.6°F9.8°C 41.3°F5.2°C 73% 2.0 mph SW3.2 kmh SW 10.0 mph16.1 kmh 29.45 in997.3 mb 0.00 in0.0 mm 0.00 in0.0 mm 0.00 in0.0 mm
02:55 AM 49.5°F9.7°C 41.2°F5.1°C 73% 2.0 mph WSW3.2 kmh WSW 8.0 mph12.9 kmh 29.45 in997.3 mb 0.00 in0.0 mm 0.00 in0.0 mm 0.00 in0.0 mm
02:50 AM 49.5°F9.7°C 41.2°F5.1°C 73% 3.0 mph WSW4.8 kmh WSW 7.0 mph11.3 kmh 29.45 in997.3 mb 0.00 in0.0 mm 0.00 in0.0 mm 0.00 in0.0 mm
02:45 AM 49.5°F9.7°C 41.2°F5.1°C 73% 2.0 mph WSW3.2 kmh WSW 6.0 mph9.7 kmh 29.45 in997.3 mb 0.00 in0.0 mm 0.00 in0.0 mm 0.00 in0.0 mm
02:40 AM 49.5°F9.7°C 41.2°F5.1°C 73% 3.0 mph SW4.8 kmh SW 9.0 mph14.5 kmh 29.45 in997.3 mb 0.00 in0.0 mm 0.00 in0.0 mm 0.00 in0.0 mm
02:35 AM 49.5°F9.7°C 41.2°F5.1°C 73% 2.0 mph W3.2 kmh W 5.0 mph8.0 kmh 29.45 in997.3 mb 0.00 in0.0 mm 0.00 in0.0 mm 0.00 in0.0 mm
02:30 AM 49.6°F9.8°C 41.3°F5.2°C 73% 2.0 mph WSW3.2 kmh WSW 5.0 mph8.0 kmh 29.45 in997.3 mb 0.00 in0.0 mm 0.00 in0.0 mm 0.00 in0.0 mm
02:25 AM 49.7°F9.8°C 41.4°F5.2°C 73% 3.0 mph WSW4.8 kmh WSW 6.0 mph9.7 kmh 29.44 in997.0 mb 0.00 in0.0 mm 0.00 in0.0 mm 0.00 in0.0 mm
02:20 AM 49.7°F9.8°C 41.4°F5.2°C 73% 3.0 mph WSW4.8 kmh WSW 11.0 mph17.7 kmh 29.44 in997.0 mb 0.00 in0.0 mm 0.00 in0.0 mm 0.00 in0.0 mm
02:15 AM 49.8°F9.9°C 41.5°F5.3°C 73% 3.0 mph WSW4.8 kmh WSW 8.0 mph12.9 kmh 29.44 in997.0 mb 0.00 in0.0 mm 0.00 in0.0 mm 0.00 in0.0 mm
02:10 AM 49.8°F9.9°C 41.5°F5.3°C 73% 3.0 mph W4.8 kmh W 12.0 mph19.3 kmh 29.43 in996.6 mb 0.00 in0.0 mm 0.00 in0.0 mm 0.00 in0.0 mm
02:05 AM 49.9°F9.9°C 41.6°F5.3°C 73% 3.0 mph WSW4.8 kmh WSW 8.0 mph12.9 kmh 29.43 in996.6 mb 0.00 in0.0 mm 0.00 in0.0 mm 0.00 in0.0 mm
02:00 AM 49.9°F9.9°C 41.6°F5.3°C 73% 4.0 mph W6.4 kmh W 10.0 mph16.1 kmh 29.43 in996.6 mb 0.00 in0.0 mm 0.00 in0.0 mm 0.00 in0.0 mm
01:55 AM 49.9°F9.9°C 41.6°F5.3°C 73% 3.0 mph WSW4.8 kmh WSW 9.0 mph14.5 kmh 29.43 in996.6 mb 0.00 in0.0 mm 0.00 in0.0 mm 0.00 in0.0 mm
01:50 AM 49.9°F9.9°C 41.6°F5.3°C 73% 4.0 mph W6.4 kmh W 10.0 mph16.1 kmh 29.42 in996.3 mb 0.00 in0.0 mm 0.00 in0.0 mm 0.00 in0.0 mm
01:45 AM 50.0°F10.0°C 41.7°F5.4°C 73% 3.0 mph WNW4.8 kmh WNW 9.0 mph14.5 kmh 29.43 in996.6 mb 0.00 in0.0 mm 0.00 in0.0 mm 0.00 in0.0 mm
01:40 AM 50.0°F10.0°C 41.7°F5.4°C 73% 2.0 mph WSW3.2 kmh WSW 11.0 mph17.7 kmh 29.42 in996.3 mb 0.00 in0.0 mm 0.00 in0.0 mm 0.00 in0.0 mm
01:35 AM 50.0°F10.0°C 41.7°F5.4°C 73% 3.0 mph W4.8 kmh W 9.0 mph14.5 kmh 29.42 in996.3 mb 0.00 in0.0 mm 0.00 in0.0 mm 0.00 in0.0 mm
01:30 AM 50.0°F10.0°C 41.7°F5.4°C 73% 4.0 mph WSW6.4 kmh WSW 13.0 mph20.9 kmh 29.42 in996.3 mb 0.00 in0.0 mm 0.00 in0.0 mm 0.00 in0.0 mm
01:25 AM 50.1°F10.1°C 41.8°F5.4°C 73% 4.0 mph W6.4 kmh W 9.0 mph14.5 kmh 29.42 in996.3 mb 0.00 in0.0 mm 0.00 in0.0 mm 0.00 in0.0 mm
01:20 AM 50.1°F10.1°C 41.4°F5.2°C 72% 2.0 mph W3.2 kmh W 7.0 mph11.3 kmh 29.41 in995.9 mb 0.00 in0.0 mm 0.00 in0.0 mm 0.00 in0.0 mm
01:15 AM 50.1°F10.1°C 41.4°F5.2°C 72% 3.0 mph WSW4.8 kmh WSW 15.0 mph24.1 kmh 29.41 in995.9 mb 0.00 in0.0 mm 0.00 in0.0 mm 0.00 in0.0 mm
01:10 AM 50.1°F10.1°C 41.4°F5.2°C 72% 3.0 mph WSW4.8 kmh WSW 8.0 mph12.9 kmh 29.41 in995.9 mb 0.00 in0.0 mm 0.00 in0.0 mm 0.00 in0.0 mm
01:05 AM 50.2°F10.1°C 41.5°F5.3°C 72% 3.0 mph SW4.8 kmh SW 10.0 mph16.1 kmh 29.41 in995.9 mb 0.00 in0.0 mm 0.00 in0.0 mm 0.00 in0.0 mm
01:00 AM 50.2°F10.1°C 41.5°F5.3°C 72% 4.0 mph W6.4 kmh W 10.0 mph16.1 kmh 29.41 in995.9 mb 0.00 in0.0 mm 0.00 in0.0 mm 0.00 in0.0 mm
12:55 AM 50.3°F10.2°C 41.6°F5.3°C 72% 3.0 mph W4.8 kmh W 9.0 mph14.5 kmh 29.41 in995.9 mb 0.00 in0.0 mm 0.00 in0.0 mm 0.00 in0.0 mm
12:50 AM 50.3°F10.2°C 41.3°F5.2°C 71% 3.0 mph W4.8 kmh W 10.0 mph16.1 kmh 29.40 in995.6 mb 0.00 in0.0 mm 0.00 in0.0 mm 0.00 in0.0 mm
12:45 AM 50.3°F10.2°C 41.3°F5.2°C 71% 4.0 mph WSW6.4 kmh WSW 11.0 mph17.7 kmh 29.40 in995.6 mb 0.00 in0.0 mm 0.00 in0.0 mm 0.00 in0.0 mm
12:40 AM 50.3°F10.2°C 41.3°F5.2°C 71% 3.0 mph W4.8 kmh W 8.0 mph12.9 kmh 29.39 in995.3 mb 0.00 in0.0 mm 0.00 in0.0 mm 0.00 in0.0 mm
12:35 AM 50.4°F10.2°C 41.0°F5.0°C 70% 3.0 mph W4.8 kmh W 9.0 mph14.5 kmh 29.39 in995.3 mb 0.00 in0.0 mm 0.00 in0.0 mm 0.00 in0.0 mm
12:30 AM 50.5°F10.3°C 41.1°F5.1°C 70% 4.0 mph WSW6.4 kmh WSW 10.0 mph16.1 kmh 29.39 in995.3 mb 0.00 in0.0 mm 0.00 in0.0 mm 0.00 in0.0 mm
12:25 AM 50.7°F10.4°C 41.3°F5.2°C 70% 4.0 mph W6.4 kmh W 11.0 mph17.7 kmh 29.39 in995.3 mb 0.00 in0.0 mm 0.00 in0.0 mm 0.00 in0.0 mm
12:20 AM 50.8°F10.4°C 41.0°F5.0°C 69% 4.0 mph WNW6.4 kmh WNW 10.0 mph16.1 kmh 29.39 in995.3 mb 0.00 in0.0 mm 0.00 in0.0 mm 0.00 in0.0 mm
12:15 AM 50.9°F10.5°C 41.1°F5.1°C 69% 4.0 mph W6.4 kmh W 12.0 mph19.3 kmh 29.38 in994.9 mb 0.00 in0.0 mm 0.00 in0.0 mm 0.00 in0.0 mm
12:10 AM 51.0°F10.6°C 41.2°F5.1°C 69% 4.0 mph W6.4 kmh W 11.0 mph17.7 kmh 29.38 in994.9 mb 0.00 in0.0 mm 0.00 in0.0 mm 0.00 in0.0 mm
12:05 AM 51.1°F10.6°C 41.3°F5.2°C 69% 5.0 mph WNW8.0 kmh WNW 13.0 mph20.9 kmh 29.38 in994.9 mb 0.00 in0.0 mm 0.00 in0.0 mm 0.00 in0.0 mm
12:00 AM 51.2°F10.7°C 41.4°F5.2°C 69% 6.0 mph WSW9.7 kmh WSW 13.0 mph20.9 kmh 29.37 in994.6 mb 0.00 in0.0 mm 0.00 in0.0 mm 1.31 in33.3 mm